• Join FlightAware (Why Join?)
  • Login
  • US Flag 
03:23AM EDT


 

Airport Tracker/Info


-or-


 

Live Flight TrackerFlight Track Log ✈ N6036Y ✈ 27-Aug-2014 ✈ KMLB - KEVB

Flight Track Log - Related Links

Times and Time Zones

All times are in EDT time to prevent confusion due to time zone crossing. See the N6036Y flight status page for this flight to view local times or setup timezone preferences in your user account.

Time Position Orientation Groundspeed Altitude Reporting Facility
EDT Latitude Longitude Course Direction KTS MPH feet Rate Location/Type
04:34PM 28.1167 -80.6167 41° Northeast 60 69 1,100  Level Orlando TRACON
04:35PM 28.1167 -80.6000 90° East 72 83 1,800 600 Climbing Orlando TRACON
04:36PM 28.1333 -80.6000 360° North 85 98 2,400 540 Climbing Orlando TRACON
04:37PM 28.1500 -80.6167 319° Northwest 77 89 2,900 300 Climbing Orlando TRACON
04:38PM 28.1500 -80.6500 270° West 114 131 3,000  Climbing Orlando TRACON
04:39PM 28.1667 -80.6833 300° West 112 129 3,000  Level Orlando TRACON
04:40PM 28.1833 -80.7167 300° West 114 131 3,000  Level Orlando TRACON
04:41PM 28.2000 -80.7500 300° West 110 127 3,000 -60 Level Orlando TRACON
04:42PM 28.2167 -80.7667 319° Northwest 105 121 2,900 -360 Descending Orlando TRACON
04:43PM 28.2333 -80.7833 319° Northwest 105 121 2,300 -420 Descending Orlando TRACON
04:44PM 28.2667 -80.8000 336° Northwest 87 100 2,100 -60 Descending Orlando TRACON
04:45PM 28.3000 -80.8000 360° North 88 101 2,200  Climbing Orlando TRACON
04:46PM 28.3167 -80.8000 360° North 97 112 2,100 -60 Descending Orlando TRACON
04:47PM 28.3500 -80.8000 360° North 96 110 2,100  Level Orlando TRACON
04:48PM 28.3667 -80.8000 360° North 91 105 2,200  Climbing Orlando TRACON
04:49PM 28.4000 -80.8000 360° North 93 107 2,100 -360 Descending Orlando TRACON
04:50PM 28.4167 -80.8000 360° North 97 112 1,500 -480 Descending Orlando TRACON
04:51PM 28.4500 -80.8000 360° North 82 94 1,200 -420 Descending Orlando TRACON
04:52PM 28.4667 -80.8000 360° North 84 97 700 -300 Descending Orlando TRACON
04:53PM 28.5000 -80.8000 360° North 86 99 600 300 Descending Orlando TRACON
04:55PM 28.5333 -80.8167 336° Northwest 102 117 1,700 600 Climbing Orlando TRACON
04:56PM 28.5333 -80.8333 270° West 91 105 2,300 660 Climbing Orlando TRACON
04:57PM 28.5500 -80.8500 319° Northwest 81 93 2,900 420 Climbing Orlando TRACON
04:58PM 28.5833 -80.8500 360° North 103 119 3,100  Climbing Orlando TRACON
04:59PM 28.6000 -80.8500 360° North 111 128 3,000 -60 Descending Orlando TRACON
05:00PM 28.6333 -80.8667 336° Northwest 108 124 3,000  Level Orlando TRACON
05:01PM 28.6667 -80.8667 360° North 107 123 3,000  Level Orlando TRACON
05:02PM 28.7000 -80.8667 360° North 107 123 3,000  Level Orlando TRACON
05:04PM 28.7519 -80.8869 341° North 106 122 3,100 60 Climbing Jacksonville Center
05:05PM 28.7814 -80.8956 346° North 105 121 3,200  Climbing Jacksonville Center
05:06PM 28.8064 -80.9000 351° North 104 120 3,100 -60 Descending Jacksonville Center
05:07PM 28.8378 -80.9089 346° North 108 124 3,100  Level Jacksonville Center
05:08PM 28.8692 -80.9153 350° North 108 124 3,100 -180 Level Jacksonville Center
05:09PM 28.8986 -80.9217 349° North 98 113 2,800 -540 Descending Jacksonville Center
05:10PM 28.9258 -80.9308 344° North 99 114 2,100 -360 Descending Jacksonville Center
05:11PM 28.9511 -80.9375 347° North 88 101 2,100  Level Jacksonville Center
05:12PM 28.9742 -80.9417 351° North 89 102 2,100 -180 Level Jacksonville Center
05:13PM 28.9969 -80.9411 North 89 102 1,800 -480 Descending Jacksonville Center
05:14PM 29.0183 -80.9644 316° Northwest 101 116 1,200 -480 Descending Jacksonville Center
05:15PM 29.0353 -80.9808 320° Northwest 74 85 900 -360 Descending Jacksonville Center
05:16PM 29.0497 -80.9758 17° North 68 78 600 -420 Descending Jacksonville Center
05:18PM 29.0500 -80.9333 North  Level FlightAware Approximate